createdAt,value
2023-01-27T00:00:23.780Z,28.07
2023-01-27T00:00:53.896Z,28.07
2023-01-27T00:01:24.005Z,28.09
2023-01-27T00:01:53.999Z,28.08
2023-01-27T00:02:24.154Z,28.04
2023-01-27T00:02:54.153Z,28.07
2023-01-27T00:03:24.180Z,28.02
2023-01-27T00:03:54.222Z,27.99
2023-01-27T00:04:24.205Z,28.00
2023-01-27T00:04:54.202Z,28.04
2023-01-27T00:05:24.203Z,28.07
2023-01-27T00:05:54.190Z,28.03
2023-01-27T00:06:24.326Z,28.03
2023-01-27T00:06:54.308Z,28.04
2023-01-27T00:07:24.419Z,28.03
2023-01-27T00:07:54.538Z,28.02
2023-01-27T00:08:24.655Z,28.02
2023-01-27T00:08:54.773Z,28.02
2023-01-27T00:09:24.885Z,28.06
2023-01-27T00:09:55.026Z,28.05
2023-01-27T00:10:25.123Z,28.08
2023-01-27T00:10:55.116Z,28.09
2023-01-27T00:11:25.110Z,28.03
2023-01-27T00:11:55.238Z,28.05
2023-01-27T00:12:25.343Z,28.08
2023-01-27T00:12:55.337Z,28.08
2023-01-27T00:13:25.347Z,28.03
2023-01-27T00:13:55.358Z,28.06
2023-01-27T00:14:25.460Z,28.06
2023-01-27T00:14:55.455Z,28.06
2023-01-27T00:15:25.584Z,28.11
2023-01-27T00:15:55.862Z,28.06
2023-01-27T00:16:25.752Z,28.05
2023-01-27T00:16:55.747Z,28.12
2023-01-27T00:17:25.864Z,28.12
2023-01-27T00:17:55.983Z,28.11
2023-01-27T00:18:26.062Z,28.11
2023-01-27T00:18:56.141Z,28.12
2023-01-27T00:19:26.216Z,28.11
2023-01-27T00:19:56.299Z,28.14
2023-01-27T00:20:26.376Z,28.12
2023-01-27T00:20:56.462Z,28.11
2023-01-27T00:21:26.543Z,28.09
2023-01-27T00:21:56.622Z,28.17
2023-01-27T00:22:26.696Z,28.14
2023-01-27T00:22:56.768Z,28.09
2023-01-27T00:23:26.856Z,28.11
2023-01-27T00:23:56.976Z,28.09
2023-01-27T00:24:27.009Z,28.12
2023-01-27T00:24:56.998Z,28.14
2023-01-27T00:25:27.054Z,28.12
2023-01-27T00:25:57.147Z,28.14
2023-01-27T00:26:27.229Z,28.14
2023-01-27T00:26:57.308Z,28.10
2023-01-27T00:27:27.387Z,28.14
2023-01-27T00:27:57.469Z,28.17
2023-01-27T00:28:27.588Z,28.09
2023-01-27T00:28:57.581Z,28.15
2023-01-27T00:29:27.696Z,28.07
2023-01-27T00:29:57.707Z,28.15
2023-01-27T00:30:27.847Z,28.15
2023-01-27T00:30:58.043Z,28.17
2023-01-27T00:31:28.094Z,28.14
2023-01-27T00:31:58.095Z,28.18
2023-01-27T00:32:28.213Z,28.20
2023-01-27T00:32:58.334Z,28.14
2023-01-27T00:33:28.444Z,28.18
2023-01-27T00:33:58.438Z,28.09
2023-01-27T00:34:28.566Z,28.14
2023-01-27T00:34:58.675Z,28.20
2023-01-27T00:35:28.790Z,28.17
2023-01-27T00:35:58.789Z,28.14
2023-01-27T00:36:28.776Z,28.12
2023-01-27T00:36:58.897Z,28.12
2023-01-27T00:37:29.019Z,28.13
2023-01-27T00:37:59.128Z,28.17
2023-01-27T00:38:29.246Z,28.14
2023-01-27T00:38:59.361Z,28.15
2023-01-27T00:39:29.481Z,28.09
2023-01-27T00:39:59.631Z,28.10
2023-01-27T00:40:29.595Z,28.11
2023-01-27T00:40:59.725Z,28.14
2023-01-27T00:41:29.729Z,28.09
2023-01-27T00:41:59.840Z,28.09
2023-01-27T00:42:29.960Z,28.09
2023-01-27T00:42:59.961Z,28.14
2023-01-27T00:43:30.083Z,28.09
2023-01-27T00:44:00.103Z,28.14
2023-01-27T00:44:30.141Z,28.12
2023-01-27T00:45:00.254Z,28.17
2023-01-27T00:45:30.353Z,28.12
2023-01-27T00:46:00.348Z,28.12
2023-01-27T00:46:30.498Z,28.07
2023-01-27T00:47:00.485Z,28.09
2023-01-27T00:47:30.586Z,28.12
2023-01-27T00:48:00.590Z,28.07
2023-01-27T00:48:30.701Z,28.13
2023-01-27T00:49:00.700Z,28.13
2023-01-27T00:49:30.824Z,28.10
2023-01-27T00:50:00.933Z,28.10
2023-01-27T00:50:31.053Z,28.10
2023-01-27T00:51:01.171Z,28.15
2023-01-27T00:51:31.310Z,28.17
2023-01-27T00:52:01.282Z,28.09
2023-01-27T00:52:31.399Z,28.13
2023-01-27T00:53:01.558Z,28.15
2023-01-27T00:53:31.528Z,28.20
2023-01-27T00:54:01.653Z,28.15
2023-01-27T00:54:31.660Z,28.13
2023-01-27T00:55:01.657Z,28.18
2023-01-27T00:55:31.772Z,28.22
2023-01-27T00:56:01.862Z,28.16
2023-01-27T00:56:31.986Z,28.15
2023-01-27T00:57:01.980Z,28.16
2023-01-27T00:57:32.085Z,28.10
2023-01-27T00:58:02.084Z,28.17
2023-01-27T00:58:32.199Z,28.16
2023-01-27T00:59:02.311Z,28.15
2023-01-27T00:59:32.428Z,28.15
2023-01-27T01:00:02.448Z,28.13
2023-01-27T01:00:32.424Z,28.15
2023-01-27T01:01:02.537Z,28.18
2023-01-27T01:01:32.691Z,28.16
2023-01-27T01:02:02.764Z,28.10
2023-01-27T01:02:32.815Z,28.15
2023-01-27T01:03:02.886Z,28.16
2023-01-27T01:03:32.887Z,28.15
2023-01-27T01:04:02.951Z,28.18
2023-01-27T01:04:33.068Z,28.19
2023-01-27T01:05:03.062Z,28.16
2023-01-27T01:05:33.178Z,28.21
2023-01-27T01:06:03.296Z,28.13
2023-01-27T01:06:33.295Z,28.13
2023-01-27T01:07:03.287Z,28.21
2023-01-27T01:07:33.403Z,28.16
2023-01-27T01:08:03.526Z,28.18
2023-01-27T01:08:33.643Z,28.20
2023-01-27T01:09:03.752Z,28.13
2023-01-27T01:09:33.867Z,28.14
2023-01-27T01:10:03.876Z,28.20
2023-01-27T01:10:33.865Z,28.19
2023-01-27T01:11:03.886Z,28.22
2023-01-27T01:11:33.861Z,28.24
2023-01-27T01:12:03.982Z,28.19
2023-01-27T01:12:34.094Z,28.22
2023-01-27T01:13:04.213Z,28.22
2023-01-27T01:13:34.214Z,28.18
2023-01-27T01:14:04.344Z,28.22
2023-01-27T01:14:34.436Z,28.13
2023-01-27T01:15:04.437Z,28.16
2023-01-27T01:15:34.556Z,28.20
2023-01-27T01:16:04.746Z,28.15
2023-01-27T01:16:34.744Z,28.13
2023-01-27T01:17:04.750Z,28.16
2023-01-27T01:17:34.856Z,28.18
2023-01-27T01:18:04.960Z,28.22
2023-01-27T01:18:35.042Z,28.19
2023-01-27T01:19:05.124Z,28.19
2023-01-27T01:19:35.197Z,28.19
2023-01-27T01:20:05.272Z,28.16
2023-01-27T01:20:35.359Z,28.18
2023-01-27T01:21:05.439Z,28.22
2023-01-27T01:21:35.524Z,28.18
2023-01-27T01:22:05.607Z,28.22
2023-01-27T01:22:35.689Z,28.18
2023-01-27T01:23:05.762Z,28.13
2023-01-27T01:23:35.838Z,28.14
2023-01-27T01:24:05.964Z,28.19
2023-01-27T01:24:36.022Z,28.14
2023-01-27T01:25:06.117Z,28.18
2023-01-27T01:25:36.191Z,28.20
2023-01-27T01:26:06.302Z,28.18
2023-01-27T01:26:36.362Z,28.19
2023-01-27T01:27:06.445Z,28.24
2023-01-27T01:27:36.527Z,28.20
2023-01-27T01:28:06.628Z,28.22
2023-01-27T01:28:36.620Z,28.22
2023-01-27T01:29:06.748Z,28.18
2023-01-27T01:29:36.733Z,28.22
2023-01-27T01:30:06.845Z,28.18
2023-01-27T01:30:36.893Z,28.22
2023-01-27T01:31:07.056Z,28.22
2023-01-27T01:31:37.020Z,28.19
2023-01-27T01:32:07.012Z,28.23
2023-01-27T01:32:37.004Z,28.16
2023-01-27T01:33:07.118Z,28.17
2023-01-27T01:33:37.111Z,28.22
2023-01-27T01:34:07.233Z,28.22
2023-01-27T01:34:37.223Z,28.23
2023-01-27T01:35:07.344Z,28.25
2023-01-27T01:35:37.372Z,28.22
2023-01-27T01:36:07.373Z,28.28
2023-01-27T01:36:37.491Z,28.23
2023-01-27T01:37:07.601Z,28.25
2023-01-27T01:37:37.600Z,28.19
2023-01-27T01:38:07.716Z,28.14
2023-01-27T01:38:37.831Z,28.18
2023-01-27T01:39:07.949Z,28.23
2023-01-27T01:39:38.062Z,28.20
2023-01-27T01:40:08.057Z,28.19
2023-01-27T01:40:38.067Z,28.20
2023-01-27T01:41:08.188Z,28.20
2023-01-27T01:41:38.208Z,28.16
2023-01-27T01:42:08.175Z,28.16
2023-01-27T01:42:38.291Z,28.25
2023-01-27T01:43:08.409Z,28.11
2023-01-27T01:43:38.400Z,28.22
2023-01-27T01:44:08.511Z,28.19
2023-01-27T01:44:38.629Z,28.19
2023-01-27T01:45:08.624Z,28.20
2023-01-27T01:45:38.743Z,28.20
2023-01-27T01:46:08.748Z,28.14
2023-01-27T01:46:38.794Z,28.11
2023-01-27T01:47:08.789Z,28.16
2023-01-27T01:47:38.801Z,28.20
2023-01-27T01:48:08.923Z,28.17
2023-01-27T01:48:39.039Z,28.16
2023-01-27T01:49:09.158Z,28.14
2023-01-27T01:49:39.152Z,28.17
2023-01-27T01:50:09.315Z,28.19
2023-01-27T01:50:39.317Z,28.14
2023-01-27T01:51:09.304Z,28.20
2023-01-27T01:51:39.335Z,28.19
2023-01-27T01:52:09.312Z,28.23
2023-01-27T01:52:39.425Z,28.20
2023-01-27T01:53:09.548Z,28.19
2023-01-27T01:53:39.660Z,28.20
2023-01-27T01:54:09.774Z,28.25
2023-01-27T01:54:39.880Z,28.18
2023-01-27T01:55:10.232Z,28.20
2023-01-27T01:55:40.097Z,28.25
2023-01-27T01:56:10.217Z,28.20
2023-01-27T01:56:40.340Z,28.17
2023-01-27T01:57:10.360Z,28.19
2023-01-27T01:57:40.396Z,28.20
2023-01-27T01:58:10.507Z,28.19
2023-01-27T01:58:40.633Z,28.19
2023-01-27T01:59:10.615Z,28.16
2023-01-27T01:59:40.732Z,28.17
2023-01-27T02:00:11.091Z,28.19
2023-01-27T02:00:40.875Z,28.20
2023-01-27T02:01:11.063Z,28.19
2023-01-27T02:01:41.078Z,28.19
2023-01-27T02:02:11.117Z,28.22
2023-01-27T02:02:41.181Z,28.19
2023-01-27T02:03:11.164Z,28.21
2023-01-27T02:03:41.279Z,28.25
2023-01-27T02:04:11.399Z,28.19
2023-01-27T02:04:41.519Z,28.25
2023-01-27T02:05:12.057Z,28.20
2023-01-27T02:05:41.686Z,28.13
2023-01-27T02:06:11.808Z,28.17
2023-01-27T02:06:41.922Z,28.20
2023-01-27T02:07:12.035Z,28.20
2023-01-27T02:07:42.156Z,28.23
2023-01-27T02:08:12.274Z,28.26
2023-01-27T02:08:42.387Z,28.19
2023-01-27T02:09:12.522Z,28.22
2023-01-27T02:09:42.500Z,28.20
2023-01-27T02:10:13.011Z,28.17
2023-01-27T02:10:42.685Z,28.20
2023-01-27T02:11:12.824Z,28.19
2023-01-27T02:11:42.804Z,28.16
2023-01-27T02:12:12.985Z,28.09
2023-01-27T02:12:42.952Z,28.19
2023-01-27T02:13:13.070Z,28.20
2023-01-27T02:13:43.158Z,28.15
2023-01-27T02:14:13.294Z,28.17
2023-01-27T02:14:43.268Z,28.22
2023-01-27T02:15:13.579Z,28.17
2023-01-27T02:15:43.322Z,28.14
2023-01-27T02:16:13.348Z,28.20
2023-01-27T02:16:43.547Z,28.16
2023-01-27T02:17:13.486Z,28.16
2023-01-27T02:17:43.603Z,28.22
2023-01-27T02:18:52.659Z,28.21
2023-01-27T02:19:22.742Z,28.14
2023-01-27T02:19:52.818Z,28.24
2023-01-27T02:20:22.894Z,28.20
2023-01-27T02:20:52.971Z,28.21
2023-01-27T02:21:23.072Z,28.20
2023-01-27T02:21:53.156Z,28.26
2023-01-27T02:22:23.236Z,28.21
2023-01-27T02:22:53.311Z,28.23
2023-01-27T02:23:23.390Z,28.24
2023-01-27T02:23:53.554Z,28.23
2023-01-27T02:24:23.511Z,28.24
2023-01-27T02:24:53.585Z,28.26
2023-01-27T02:25:23.671Z,28.24
2023-01-27T02:25:53.749Z,28.20
2023-01-27T02:26:23.869Z,28.23
2023-01-27T02:26:53.827Z,28.26
2023-01-27T02:27:23.922Z,28.26
2023-01-27T02:27:53.972Z,28.29
2023-01-27T02:28:24.056Z,28.26
2023-01-27T02:28:54.167Z,28.24
2023-01-27T02:29:24.286Z,28.31
2023-01-27T02:29:54.286Z,28.29
2023-01-27T02:30:24.396Z,28.26
2023-01-27T02:30:54.556Z,28.20
2023-01-27T02:31:24.629Z,28.29
2023-01-27T02:31:54.544Z,28.23
2023-01-27T02:32:24.531Z,28.23
2023-01-27T02:32:54.525Z,28.23
2023-01-27T02:33:24.643Z,28.23
2023-01-27T02:33:54.690Z,28.20
2023-01-27T02:34:24.819Z,28.21
2023-01-27T02:34:54.927Z,28.20
2023-01-27T02:35:25.063Z,28.21
2023-01-27T02:35:55.045Z,28.21
2023-01-27T02:36:25.185Z,28.24
2023-01-27T02:36:55.177Z,28.23
2023-01-27T02:37:25.165Z,28.24
2023-01-27T02:37:55.283Z,28.21
2023-01-27T02:38:25.403Z,28.23
2023-01-27T02:38:55.402Z,28.23
2023-01-27T02:39:25.393Z,28.24
2023-01-27T02:39:55.510Z,28.20
2023-01-27T02:40:25.633Z,28.23
2023-01-27T02:40:55.750Z,28.23
2023-01-27T02:41:25.903Z,28.23
2023-01-27T02:41:55.890Z,28.25
2023-01-27T02:42:26.032Z,28.27
2023-01-27T02:42:56.004Z,28.24
2023-01-27T02:43:26.121Z,28.20
2023-01-27T02:43:56.139Z,28.29
2023-01-27T02:44:26.137Z,28.24
2023-01-27T02:44:56.253Z,28.23
2023-01-27T02:45:26.377Z,28.24
2023-01-27T02:45:56.519Z,28.22
2023-01-27T02:46:26.509Z,28.29
2023-01-27T02:46:56.508Z,28.25
2023-01-27T02:47:26.621Z,28.20
2023-01-27T02:47:56.739Z,28.20
2023-01-27T02:48:26.849Z,28.15
2023-01-27T02:48:56.844Z,28.21
2023-01-27T02:49:26.955Z,28.16
2023-01-27T02:49:56.958Z,28.23
2023-01-27T02:50:26.948Z,28.21
2023-01-27T02:50:57.057Z,28.15
2023-01-27T02:51:27.094Z,28.18
2023-01-27T02:51:57.086Z,28.16
2023-01-27T02:52:27.195Z,28.17
2023-01-27T02:52:57.193Z,28.18
2023-01-27T02:53:27.211Z,28.17
2023-01-27T02:53:57.190Z,28.19
2023-01-27T02:54:27.212Z,28.19
2023-01-27T02:54:57.185Z,28.15
2023-01-27T02:55:27.315Z,28.21
2023-01-27T02:55:57.427Z,28.19
2023-01-27T02:56:27.420Z,28.18
2023-01-27T02:56:57.546Z,28.18
2023-01-27T02:57:27.549Z,28.16
2023-01-27T02:57:57.682Z,28.19
2023-01-27T02:58:27.703Z,28.24
2023-01-27T02:58:57.770Z,28.21
2023-01-27T02:59:27.893Z,28.16
2023-01-27T02:59:57.884Z,28.24
2023-01-27T03:00:28.004Z,28.24
2023-01-27T03:00:58.012Z,28.19
2023-01-27T03:01:28.178Z,28.21
2023-01-27T03:01:58.181Z,28.24
2023-01-27T03:02:28.244Z,28.25
2023-01-27T03:02:58.244Z,28.18
2023-01-27T03:03:28.261Z,28.24
2023-01-27T03:03:58.257Z,28.24
2023-01-27T03:04:28.380Z,28.24
2023-01-27T03:04:58.470Z,28.27
2023-01-27T03:05:28.587Z,28.19
2023-01-27T03:05:58.704Z,28.25
2023-01-27T03:06:28.695Z,28.22
2023-01-27T03:06:58.764Z,28.25
2023-01-27T03:07:28.881Z,28.19
2023-01-27T03:07:58.987Z,28.24
2023-01-27T03:08:29.107Z,28.21
2023-01-27T03:08:59.102Z,28.21
2023-01-27T03:09:29.228Z,28.19
2023-01-27T03:09:59.209Z,28.24
2023-01-27T03:10:29.334Z,28.19
2023-01-27T03:10:59.345Z,28.16
2023-01-27T03:11:29.327Z,28.19
2023-01-27T03:11:59.460Z,28.19
2023-01-27T03:12:29.564Z,28.19
2023-01-27T03:12:59.678Z,28.18
2023-01-27T03:13:29.815Z,28.15
2023-01-27T03:13:59.801Z,28.15
2023-01-27T03:14:29.791Z,28.24
2023-01-27T03:14:59.913Z,28.22
2023-01-27T03:15:30.069Z,28.21
2023-01-27T03:16:00.175Z,28.20
2023-01-27T03:16:30.161Z,28.19
2023-01-27T03:17:00.268Z,28.21
2023-01-27T03:17:30.381Z,28.21
2023-01-27T03:18:00.379Z,28.22
2023-01-27T03:18:30.490Z,28.21
2023-01-27T03:19:00.560Z,28.22
2023-01-27T03:19:30.641Z,28.16
2023-01-27T03:20:00.721Z,28.15
2023-01-27T03:20:30.801Z,28.21
2023-01-27T03:21:00.905Z,28.16
2023-01-27T03:21:30.963Z,28.15
2023-01-27T03:22:01.067Z,28.21
2023-01-27T03:22:31.133Z,28.18
2023-01-27T03:23:01.219Z,28.20
2023-01-27T03:23:31.273Z,28.24
2023-01-27T03:24:01.416Z,28.19
2023-01-27T03:24:31.375Z,28.19
2023-01-27T03:25:01.476Z,28.19
2023-01-27T03:25:31.528Z,28.18
2023-01-27T03:26:01.629Z,28.15
2023-01-27T03:26:31.712Z,28.16
2023-01-27T03:27:01.794Z,28.20
2023-01-27T03:27:31.872Z,28.21
2023-01-27T03:28:01.955Z,28.18
2023-01-27T03:28:31.974Z,28.24
2023-01-27T03:29:01.996Z,28.25
2023-01-27T03:29:31.968Z,28.18
2023-01-27T03:30:02.080Z,28.20
2023-01-27T03:30:32.064Z,28.20
2023-01-27T03:31:02.331Z,28.24
2023-01-27T03:31:32.424Z,28.30
2023-01-27T03:32:02.373Z,28.19
2023-01-27T03:32:32.488Z,28.23
2023-01-27T03:33:02.594Z,28.20
2023-01-27T03:33:32.707Z,28.25
2023-01-27T03:34:02.703Z,28.22
2023-01-27T03:34:32.814Z,28.22
2023-01-27T03:35:02.943Z,28.22
2023-01-27T03:35:32.932Z,28.20
2023-01-27T03:36:03.049Z,28.20
2023-01-27T03:36:33.165Z,28.22
2023-01-27T03:37:03.159Z,28.16
2023-01-27T03:37:33.188Z,28.24
2023-01-27T03:38:03.306Z,28.23
2023-01-27T03:38:33.310Z,28.20
2023-01-27T03:39:03.427Z,28.19
2023-01-27T03:39:33.567Z,28.20
2023-01-27T03:40:03.674Z,28.22
2023-01-27T03:40:33.857Z,28.19
2023-01-27T03:41:03.846Z,28.20
2023-01-27T03:41:33.930Z,28.16
2023-01-27T03:42:04.049Z,28.20
2023-01-27T03:42:34.059Z,28.20
2023-01-27T03:43:04.170Z,28.20
2023-01-27T03:43:34.175Z,28.23
2023-01-27T03:44:04.279Z,28.19
2023-01-27T03:44:34.421Z,28.20
2023-01-27T03:45:04.548Z,28.19
2023-01-27T03:45:34.572Z,28.19
2023-01-27T03:46:04.701Z,28.20
2023-01-27T03:46:34.808Z,28.22
2023-01-27T03:47:04.811Z,28.23
2023-01-27T03:47:34.931Z,28.25
2023-01-27T03:48:04.924Z,28.23
2023-01-27T03:48:35.043Z,28.22
2023-01-27T03:49:05.164Z,28.25
2023-01-27T03:49:35.273Z,28.22
2023-01-27T03:50:05.387Z,28.22
2023-01-27T03:50:35.525Z,28.19
2023-01-27T03:51:05.492Z,28.19
2023-01-27T03:51:35.627Z,28.20
2023-01-27T03:52:05.729Z,28.28
2023-01-27T03:52:35.848Z,28.22
2023-01-27T03:53:05.984Z,28.25
2023-01-27T03:53:35.928Z,28.26
2023-01-27T03:54:05.913Z,28.25
2023-01-27T03:54:36.028Z,28.25
2023-01-27T03:55:06.150Z,28.19
2023-01-27T03:55:36.143Z,28.20
2023-01-27T03:56:06.177Z,28.22
2023-01-27T03:56:36.132Z,28.19
2023-01-27T03:57:06.697Z,28.18
2023-01-27T03:57:36.315Z,28.16
2023-01-27T03:58:06.439Z,28.10
2023-01-27T03:58:36.434Z,28.18
2023-01-27T03:59:06.466Z,28.18
2023-01-27T03:59:36.583Z,28.13
2023-01-27T04:00:06.732Z,28.14
2023-01-27T04:00:36.810Z,28.18
2023-01-27T04:01:06.947Z,28.13
2023-01-27T04:01:37.019Z,28.10
2023-01-27T04:02:07.000Z,28.19
2023-01-27T04:02:37.144Z,28.18
2023-01-27T04:03:07.179Z,28.16
2023-01-27T04:03:37.153Z,28.16
2023-01-27T04:04:07.272Z,28.20
2023-01-27T04:04:37.388Z,28.22
2023-01-27T04:05:07.389Z,28.26
2023-01-27T04:05:37.507Z,28.22
2023-01-27T04:06:07.628Z,28.22
2023-01-27T04:06:37.611Z,28.22
2023-01-27T04:07:07.733Z,28.15
2023-01-27T04:07:37.870Z,28.13
2023-01-27T04:08:07.882Z,28.14
2023-01-27T04:08:37.872Z,28.15
2023-01-27T04:09:08.009Z,28.11
2023-01-27T04:09:38.020Z,28.08
2023-01-27T04:10:08.111Z,28.08
2023-01-27T04:10:38.228Z,28.06
2023-01-27T04:11:08.344Z,28.02
2023-01-27T04:11:38.339Z,28.01
2023-01-27T04:12:08.452Z,27.96
2023-01-27T04:12:38.611Z,27.98
2023-01-27T04:13:08.575Z,27.92
2023-01-27T04:13:38.691Z,27.91
2023-01-27T04:14:08.825Z,27.93
2023-01-27T04:14:38.860Z,27.91
2023-01-27T04:15:08.877Z,27.88
2023-01-27T04:15:38.917Z,27.85
2023-01-27T04:16:09.010Z,27.81
2023-01-27T04:16:38.972Z,27.82
2023-01-27T04:17:09.091Z,27.76
2023-01-27T04:17:39.224Z,27.84
2023-01-27T04:18:09.332Z,27.80
2023-01-27T04:18:39.422Z,27.76
2023-01-27T04:19:09.511Z,27.77
2023-01-27T04:19:39.584Z,27.72
2023-01-27T04:20:09.662Z,27.71
2023-01-27T04:20:39.745Z,27.76
2023-01-27T04:21:09.861Z,27.70
2023-01-27T04:21:39.908Z,27.65
2023-01-27T04:22:09.995Z,27.65
2023-01-27T04:22:40.072Z,27.56
2023-01-27T04:23:10.157Z,27.60
2023-01-27T04:23:40.238Z,27.60
2023-01-27T04:24:10.357Z,27.61
2023-01-27T04:24:40.432Z,27.66
2023-01-27T04:25:12.348Z,27.54
2023-01-27T04:25:40.612Z,27.61
2023-01-27T04:26:10.709Z,27.61
2023-01-27T04:26:40.790Z,27.57
2023-01-27T04:27:10.873Z,27.58
2023-01-27T04:27:40.952Z,27.55
2023-01-27T04:28:11.056Z,27.53
2023-01-27T04:28:44.659Z,27.54
2023-01-27T04:29:11.226Z,27.54
2023-01-27T04:29:41.354Z,27.49
2023-01-27T04:30:11.391Z,27.50
2023-01-27T04:30:41.391Z,27.56
2023-01-27T04:31:11.524Z,27.50
2023-01-27T04:31:41.464Z,27.48
2023-01-27T04:32:11.479Z,27.48
2023-01-27T04:32:41.590Z,27.47
2023-01-27T04:33:11.693Z,27.47
2023-01-27T04:33:41.696Z,27.50
2023-01-27T04:34:11.804Z,27.45
2023-01-27T04:34:41.799Z,27.50
2023-01-27T04:35:12.250Z,27.44
2023-01-27T04:35:41.924Z,27.44
2023-01-27T04:36:12.052Z,27.43
2023-01-27T04:36:42.037Z,27.42
2023-01-27T04:37:12.163Z,27.41
2023-01-27T04:37:42.151Z,27.41
2023-01-27T04:38:12.969Z,27.42
2023-01-27T04:38:42.383Z,27.39
2023-01-27T04:39:12.376Z,27.39
2023-01-27T04:39:42.378Z,27.39
2023-01-27T04:40:12.492Z,27.43
2023-01-27T04:40:42.612Z,27.43
2023-01-27T04:41:12.667Z,27.41
2023-01-27T04:41:42.649Z,27.37
2023-01-27T04:42:12.651Z,27.37
2023-01-27T04:42:42.713Z,27.42
2023-01-27T04:43:12.709Z,27.37
2023-01-27T04:43:42.831Z,27.40
2023-01-27T04:44:12.854Z,27.40
2023-01-27T04:44:42.847Z,27.35
2023-01-27T04:45:13.254Z,27.43
2023-01-27T04:45:43.155Z,27.37
2023-01-27T04:46:13.159Z,27.37
2023-01-27T04:46:43.161Z,27.32
2023-01-27T04:47:13.161Z,27.40
2023-01-27T04:47:43.153Z,27.38
2023-01-27T04:48:13.274Z,27.31
2023-01-27T04:48:43.267Z,27.39
2023-01-27T04:49:13.385Z,27.31
2023-01-27T04:49:43.499Z,27.33
2023-01-27T04:50:13.501Z,27.36
2023-01-27T04:50:43.623Z,27.34
2023-01-27T04:51:13.740Z,27.34
2023-01-27T04:51:46.117Z,27.36
2023-01-27T04:52:13.963Z,27.34
2023-01-27T04:52:44.083Z,27.34
2023-01-27T04:53:14.218Z,27.39
2023-01-27T04:53:44.231Z,27.31
2023-01-27T04:54:14.326Z,27.34
2023-01-27T04:54:44.438Z,27.31
2023-01-27T04:55:15.222Z,27.33
2023-01-27T04:55:44.643Z,27.27
2023-01-27T04:56:14.740Z,27.30
2023-01-27T04:56:44.856Z,27.28
2023-01-27T04:57:14.981Z,27.30
2023-01-27T04:57:45.098Z,27.24
2023-01-27T04:58:15.226Z,27.22
2023-01-27T04:58:45.224Z,27.26
2023-01-27T04:59:15.368Z,27.24
2023-01-27T04:59:45.465Z,27.19
2023-01-27T05:00:16.643Z,27.24
2023-01-27T05:00:45.527Z,27.22
2023-01-27T05:01:15.631Z,27.18
2023-01-27T05:01:45.636Z,27.16
2023-01-27T05:02:15.812Z,27.16
2023-01-27T05:02:45.876Z,27.26
2023-01-27T05:03:15.931Z,27.21
2023-01-27T05:03:45.945Z,27.17
2023-01-27T05:04:16.061Z,27.18
2023-01-27T05:04:46.062Z,27.16
2023-01-27T05:05:16.167Z,27.18
2023-01-27T05:05:46.140Z,27.20
2023-01-27T05:06:16.272Z,27.18
2023-01-27T05:06:46.273Z,27.12
2023-01-27T05:07:16.380Z,27.16
2023-01-27T05:07:46.374Z,27.16
2023-01-27T05:08:16.369Z,27.16
2023-01-27T05:08:46.488Z,27.18
2023-01-27T05:09:16.550Z,27.21
2023-01-27T05:09:46.527Z,27.16
2023-01-27T05:10:16.647Z,27.15
2023-01-27T05:10:46.642Z,27.12
2023-01-27T05:11:16.829Z,27.18
2023-01-27T05:11:46.807Z,27.17
2023-01-27T05:12:16.895Z,27.15
2023-01-27T05:12:46.899Z,27.16
2023-01-27T05:13:16.889Z,27.17
2023-01-27T05:13:46.907Z,27.15
2023-01-27T05:14:16.930Z,27.09
2023-01-27T05:14:46.912Z,27.10
2023-01-27T05:15:16.966Z,27.12
2023-01-27T05:15:47.187Z,27.11
2023-01-27T05:16:17.233Z,27.06
2023-01-27T05:16:47.237Z,27.10
2023-01-27T05:17:17.276Z,27.08
2023-01-27T05:17:47.391Z,27.11
2023-01-27T05:18:17.509Z,27.06
2023-01-27T05:18:47.615Z,27.06
2023-01-27T05:19:17.687Z,27.10
2023-01-27T05:19:47.768Z,27.07
2023-01-27T05:20:17.862Z,27.08
2023-01-27T05:20:47.936Z,27.08
2023-01-27T05:21:18.036Z,27.04
2023-01-27T05:21:48.141Z,27.06
2023-01-27T05:22:18.216Z,27.08
2023-01-27T05:22:48.297Z,27.02
2023-01-27T05:23:18.381Z,27.04
2023-01-27T05:23:48.477Z,27.08
2023-01-27T05:24:18.635Z,27.08
2023-01-27T05:24:48.643Z,27.05
2023-01-27T05:25:18.662Z,27.05
2023-01-27T05:25:48.776Z,27.04
2023-01-27T05:26:18.858Z,26.99
2023-01-27T05:26:48.940Z,27.05
2023-01-27T05:27:19.023Z,27.02
2023-01-27T05:27:49.102Z,27.04
2023-01-27T05:28:19.178Z,26.99
2023-01-27T05:28:49.305Z,27.05
2023-01-27T05:29:19.294Z,27.00
2023-01-27T05:29:49.412Z,27.02
2023-01-27T05:30:19.525Z,26.96
2023-01-27T05:30:49.750Z,26.96
2023-01-27T05:31:19.794Z,27.02
2023-01-27T05:31:49.723Z,26.95
2023-01-27T05:32:19.729Z,26.98
2023-01-27T05:32:49.840Z,27.04
2023-01-27T05:33:19.961Z,27.00
2023-01-27T05:33:50.081Z,27.00
2023-01-27T05:34:20.069Z,26.95
2023-01-27T05:34:50.188Z,27.00
2023-01-27T05:35:20.180Z,26.97
2023-01-27T05:35:50.199Z,27.00
2023-01-27T05:36:20.201Z,27.00
2023-01-27T05:36:50.187Z,27.06
2023-01-27T05:37:20.188Z,27.02
2023-01-27T05:37:50.173Z,26.97
2023-01-27T05:38:20.292Z,26.97
2023-01-27T05:38:50.335Z,27.03
2023-01-27T05:39:20.312Z,27.00
2023-01-27T05:39:50.430Z,26.99
2023-01-27T05:40:20.429Z,26.95
2023-01-27T05:40:50.538Z,26.94
2023-01-27T05:41:20.692Z,26.99
2023-01-27T05:41:50.774Z,26.94
2023-01-27T05:42:20.886Z,26.95
2023-01-27T05:42:50.999Z,26.94
2023-01-27T05:43:21.116Z,26.96
2023-01-27T05:43:51.143Z,26.97
2023-01-27T05:44:21.122Z,27.01
2023-01-27T05:44:51.119Z,26.93
2023-01-27T05:45:21.251Z,26.94
2023-01-27T05:45:51.350Z,26.93
2023-01-27T05:46:21.533Z,26.95
2023-01-27T05:46:51.617Z,26.91
2023-01-27T05:47:21.616Z,26.95
2023-01-27T05:47:51.620Z,26.90
2023-01-27T05:48:21.608Z,26.92
2023-01-27T05:48:51.736Z,26.86
2023-01-27T05:49:21.736Z,26.92
2023-01-27T05:49:51.742Z,26.92
2023-01-27T05:50:21.848Z,26.88
2023-01-27T05:50:51.843Z,26.86
2023-01-27T05:51:21.870Z,26.93
2023-01-27T05:51:51.955Z,26.90
2023-01-27T05:52:21.955Z,26.86
2023-01-27T05:52:51.949Z,26.92
2023-01-27T05:53:21.947Z,26.91
2023-01-27T05:53:52.391Z,26.86
2023-01-27T05:54:22.141Z,26.92
2023-01-27T05:54:52.128Z,26.83
2023-01-27T05:55:22.243Z,26.88
2023-01-27T05:55:52.249Z,26.83
2023-01-27T05:56:22.232Z,26.88
2023-01-27T05:56:52.348Z,26.91
2023-01-27T05:57:22.464Z,26.91
2023-01-27T05:57:52.466Z,26.85
2023-01-27T05:58:22.584Z,26.88
2023-01-27T05:58:52.723Z,26.91
2023-01-27T05:59:22.716Z,27.17
2023-01-27T05:59:52.843Z,27.03
2023-01-27T06:00:22.958Z,27.00
2023-01-27T06:00:53.083Z,26.95
2023-01-27T06:01:23.077Z,26.93
2023-01-27T06:01:53.208Z,26.82
2023-01-27T06:02:23.696Z,26.87
2023-01-27T06:02:53.375Z,26.87
2023-01-27T06:03:23.387Z,26.91
2023-01-27T06:03:53.503Z,27.02
2023-01-27T06:04:23.487Z,26.99
2023-01-27T06:04:53.617Z,26.92
2023-01-27T06:05:23.725Z,26.90
2023-01-27T06:05:53.857Z,26.98
2023-01-27T06:06:23.854Z,27.08
2023-01-27T06:06:53.984Z,26.96
2023-01-27T06:07:24.091Z,26.90
2023-01-27T06:07:55.415Z,26.89
2023-01-27T06:08:24.169Z,27.01
2023-01-27T06:08:54.278Z,26.99
2023-01-27T06:09:24.275Z,26.98
2023-01-27T06:09:54.286Z,26.92
2023-01-27T06:10:24.396Z,26.94
2023-01-27T06:10:54.529Z,26.95
2023-01-27T06:11:24.554Z,26.92
2023-01-27T06:11:54.653Z,26.89
2023-01-27T06:12:24.647Z,26.97
2023-01-27T06:12:54.641Z,26.90
2023-01-27T06:13:24.645Z,26.90
2023-01-27T06:13:54.765Z,26.85
2023-01-27T06:14:24.769Z,26.84
2023-01-27T06:14:54.888Z,26.82
2023-01-27T06:15:24.885Z,26.82
2023-01-27T06:15:55.049Z,26.79
2023-01-27T06:16:25.112Z,26.79
2023-01-27T06:16:55.102Z,26.77
2023-01-27T06:17:25.088Z,26.74
2023-01-27T06:17:55.110Z,26.78
2023-01-27T06:18:25.192Z,26.73
2023-01-27T06:18:55.281Z,26.80
2023-01-27T06:19:25.361Z,26.79
2023-01-27T06:19:55.447Z,26.77
2023-01-27T06:20:25.528Z,26.77
2023-01-27T06:20:55.630Z,26.79
2023-01-27T06:21:25.705Z,26.73
2023-01-27T06:21:55.788Z,26.77
2023-01-27T06:22:25.871Z,26.74
2023-01-27T06:22:55.952Z,26.77
2023-01-27T06:23:26.043Z,26.76
2023-01-27T06:23:56.252Z,26.74
2023-01-27T06:24:26.256Z,26.73
2023-01-27T06:24:56.310Z,26.76
2023-01-27T06:25:26.401Z,26.71
2023-01-27T06:25:56.496Z,26.70
2023-01-27T06:26:26.578Z,26.70
2023-01-27T06:26:56.622Z,26.67
2023-01-27T06:27:26.699Z,26.71
2023-01-27T06:27:56.778Z,26.64